createdAt,value
2017-08-21T00:01:29.913Z,12.90
2017-08-21T00:03:57.458Z,12.90
2017-08-21T00:06:25.790Z,12.90
2017-08-21T00:08:53.330Z,12.90
2017-08-21T00:11:20.892Z,12.80
2017-08-21T00:13:48.454Z,12.90
2017-08-21T00:16:16.027Z,12.90
2017-08-21T00:18:43.567Z,12.90
2017-08-21T00:21:11.103Z,12.80
2017-08-21T00:23:39.407Z,12.90
2017-08-21T00:26:06.937Z,12.80
2017-08-21T00:28:35.261Z,12.80
2017-08-21T00:31:02.801Z,12.80
2017-08-21T00:33:30.364Z,12.70
2017-08-21T00:35:57.894Z,12.70
2017-08-21T00:38:26.216Z,12.70
2017-08-21T00:40:53.753Z,12.60
2017-08-21T00:43:21.295Z,12.70
2017-08-21T00:45:49.602Z,12.70
2017-08-21T00:48:17.139Z,12.70
2017-08-21T00:50:45.470Z,12.70
2017-08-21T00:53:13.031Z,12.70
2017-08-21T00:55:40.571Z,12.80
2017-08-21T00:58:08.114Z,12.70
2017-08-21T01:00:35.651Z,12.70
2017-08-21T01:03:03.946Z,12.70
2017-08-21T01:05:31.547Z,12.70
2017-08-21T01:07:59.088Z,12.70
2017-08-21T01:10:26.610Z,12.60
2017-08-21T01:12:54.153Z,12.60
2017-08-21T01:15:21.724Z,12.60
2017-08-21T01:17:49.255Z,12.60
2017-08-21T01:20:16.815Z,12.60
2017-08-21T01:22:44.347Z,12.60
2017-08-21T01:25:11.878Z,12.60
2017-08-21T01:27:39.415Z,12.60
2017-08-21T01:30:06.946Z,12.60
2017-08-21T01:32:34.482Z,12.60
2017-08-21T01:35:02.015Z,12.60
2017-08-21T01:37:30.322Z,12.60
2017-08-21T01:39:57.910Z,12.60
2017-08-21T01:42:25.441Z,12.60
2017-08-21T01:44:52.975Z,12.60
2017-08-21T01:47:44.458Z,12.50
2017-08-21T01:50:11.991Z,12.50
2017-08-21T01:52:39.545Z,12.60
2017-08-21T01:55:07.078Z,12.50
2017-08-21T01:57:35.495Z,12.60
2017-08-21T02:00:03.079Z,12.60
2017-08-21T02:02:30.651Z,12.60
2017-08-21T02:04:58.187Z,12.60
2017-08-21T02:07:25.751Z,12.60
2017-08-21T02:09:53.291Z,12.60
2017-08-21T02:12:20.835Z,12.60
2017-08-21T02:14:48.358Z,12.60
2017-08-21T02:17:16.662Z,12.50
2017-08-21T02:19:44.250Z,12.50
2017-08-21T02:22:11.778Z,12.60
2017-08-21T02:24:39.338Z,12.60
2017-08-21T02:27:06.931Z,12.60
2017-08-21T02:29:34.591Z,12.60
2017-08-21T02:32:02.128Z,12.50
2017-08-21T02:34:29.678Z,12.50
2017-08-21T02:36:57.202Z,12.50
2017-08-21T02:39:24.845Z,12.50
2017-08-21T02:41:52.395Z,12.50
2017-08-21T02:44:19.967Z,12.60
2017-08-21T02:46:47.491Z,12.70
2017-08-21T02:49:15.034Z,12.70
2017-08-21T02:51:43.358Z,12.70
2017-08-21T02:54:10.889Z,12.70
2017-08-21T02:56:38.422Z,12.70
2017-08-21T02:59:05.962Z,12.70
2017-08-21T03:01:33.498Z,12.80
2017-08-21T03:04:01.795Z,12.80
2017-08-21T03:06:29.352Z,12.80
2017-08-21T03:08:56.890Z,12.80
2017-08-21T03:11:25.211Z,12.80
2017-08-21T03:13:52.734Z,12.80
2017-08-21T03:16:21.058Z,12.70
2017-08-21T03:18:48.587Z,12.70
2017-08-21T03:21:16.142Z,12.70
2017-08-21T03:23:44.463Z,12.70
2017-08-21T03:26:11.993Z,12.70
2017-08-21T03:28:39.523Z,12.70
2017-08-21T03:31:07.048Z,12.80
2017-08-21T03:33:34.582Z,12.80
2017-08-21T03:36:02.114Z,12.80
2017-08-21T03:38:29.670Z,12.90
2017-08-21T03:40:57.999Z,12.80
2017-08-21T03:43:25.551Z,12.80
2017-08-21T03:45:53.122Z,12.80
2017-08-21T03:48:20.682Z,12.80
2017-08-21T03:50:48.211Z,12.80
2017-08-21T03:53:15.762Z,12.80
2017-08-21T03:55:43.290Z,12.80
2017-08-21T03:58:10.858Z,12.70
2017-08-21T04:00:38.387Z,12.70
2017-08-21T04:03:05.946Z,12.70
2017-08-21T04:05:33.476Z,12.70
2017-08-21T04:08:01.011Z,12.70
2017-08-21T04:10:29.338Z,12.60
2017-08-21T04:12:56.897Z,12.60
2017-08-21T04:15:24.442Z,12.60
2017-08-21T04:17:51.972Z,12.70
2017-08-21T04:20:19.526Z,12.70
2017-08-21T04:22:47.054Z,12.60
2017-08-21T04:25:14.609Z,12.70
2017-08-21T04:27:42.143Z,12.60
2017-08-21T04:30:09.718Z,12.60
2017-08-21T04:32:37.251Z,12.70
2017-08-21T04:35:04.786Z,12.70
2017-08-21T04:37:32.315Z,12.70
2017-08-21T04:39:59.847Z,12.60
2017-08-21T04:42:27.394Z,12.60
2017-08-21T04:44:54.928Z,12.60
2017-08-21T04:47:22.483Z,12.60
2017-08-21T04:49:50.014Z,12.50
2017-08-21T04:52:17.573Z,12.50
2017-08-21T04:54:45.878Z,12.60
2017-08-21T04:57:13.476Z,12.60
2017-08-21T04:59:41.011Z,12.70
2017-08-21T05:02:08.566Z,12.70
2017-08-21T05:04:36.144Z,12.70
2017-08-21T05:07:03.711Z,12.70
2017-08-21T05:09:31.246Z,12.70
2017-08-21T05:11:58.774Z,12.70
2017-08-21T05:14:27.073Z,12.90
2017-08-21T05:16:54.610Z,12.90
2017-08-21T05:19:22.931Z,13.10
2017-08-21T05:21:50.454Z,13.10
2017-08-21T05:24:18.781Z,13.30
2017-08-21T05:26:46.314Z,13.30
2017-08-21T05:29:13.866Z,13.70
2017-08-21T05:31:41.395Z,14.00
2017-08-21T05:34:08.954Z,14.30
2017-08-21T05:36:36.478Z,14.30
2017-08-21T05:39:04.031Z,14.30
2017-08-21T05:41:31.571Z,14.30
2017-08-21T05:43:59.140Z,14.50
2017-08-21T05:46:26.670Z,14.50
2017-08-21T05:48:54.206Z,14.60
2017-08-21T05:51:21.738Z,14.80
2017-08-21T05:53:49.262Z,15.10
2017-08-21T05:56:16.818Z,15.30
2017-08-21T05:58:44.395Z,15.50
2017-08-21T06:01:11.950Z,15.40
2017-08-21T06:03:39.481Z,15.90
2017-08-21T06:06:07.034Z,16.20
2017-08-21T06:08:35.355Z,16.70
2017-08-21T06:11:02.887Z,16.60
2017-08-21T06:13:30.474Z,17.00
2017-08-21T06:15:58.043Z,17.00
2017-08-21T06:18:25.598Z,16.80
2017-08-21T06:20:53.135Z,16.80
2017-08-21T06:23:20.678Z,17.10
2017-08-21T06:25:48.250Z,16.90
2017-08-21T06:28:15.779Z,16.60
2017-08-21T06:30:43.318Z,16.80
2017-08-21T06:33:10.854Z,17.20
2017-08-21T06:35:38.399Z,17.20
2017-08-21T06:38:05.950Z,17.30
2017-08-21T06:40:34.167Z,17.60
2017-08-21T06:43:01.709Z,17.80
2017-08-21T06:45:29.251Z,18.00
2017-08-21T06:47:56.787Z,18.50
2017-08-21T06:50:24.332Z,19.10
2017-08-21T06:52:52.639Z,19.40
2017-08-21T06:55:20.231Z,19.40
2017-08-21T06:57:47.772Z,19.50
2017-08-21T07:00:34.730Z,19.70
2017-08-21T07:03:02.269Z,19.60
2017-08-21T07:05:29.812Z,20.10
2017-08-21T07:07:57.358Z,19.80
2017-08-21T07:10:24.894Z,19.70
2017-08-21T07:12:53.711Z,19.60
2017-08-21T07:15:21.250Z,20.20
2017-08-21T07:17:49.575Z,20.20
2017-08-21T07:20:17.156Z,20.20
2017-08-21T07:22:44.804Z,20.40
2017-08-21T07:25:12.342Z,20.40
2017-08-21T07:27:39.876Z,20.60
2017-08-21T07:30:07.420Z,20.90
2017-08-21T07:32:35.728Z,21.70
2017-08-21T07:35:03.258Z,21.60
2017-08-21T07:37:31.558Z,21.80
2017-08-21T07:40:00.011Z,21.70
2017-08-21T07:42:27.542Z,21.70
2017-08-21T07:44:55.099Z,22.20
2017-08-21T07:47:22.630Z,22.40
2017-08-21T07:49:50.194Z,22.60
2017-08-21T07:52:17.726Z,22.50
2017-08-21T07:54:45.298Z,22.30
2017-08-21T07:57:12.834Z,21.70
2017-08-21T07:59:40.362Z,22.10
2017-08-21T08:02:07.897Z,22.50
2017-08-21T08:04:35.431Z,22.00
2017-08-21T08:07:02.958Z,21.60
2017-08-21T08:09:30.491Z,20.80
2017-08-21T08:11:58.022Z,21.00
2017-08-21T08:14:26.323Z,21.30
2017-08-21T08:16:53.870Z,21.30
2017-08-21T08:19:22.198Z,21.70
2017-08-21T08:21:49.775Z,21.70
2017-08-21T08:24:17.299Z,21.80
2017-08-21T08:26:44.853Z,20.80
2017-08-21T08:29:12.382Z,20.90
2017-08-21T08:31:40.715Z,21.90
2017-08-21T08:34:08.279Z,21.90
2017-08-21T08:36:35.838Z,22.30
2017-08-21T08:39:03.397Z,22.30
2017-08-21T08:41:30.935Z,22.30
2017-08-21T08:43:58.525Z,21.50
2017-08-21T08:46:26.090Z,21.50
2017-08-21T08:48:53.619Z,20.80
2017-08-21T08:51:21.146Z,20.30
2017-08-21T08:53:48.669Z,19.90
2017-08-21T08:56:16.190Z,19.70
2017-08-21T08:58:43.747Z,19.70
2017-08-21T09:01:11.291Z,19.00
2017-08-21T09:03:38.842Z,19.10
2017-08-21T09:06:06.368Z,19.90
2017-08-21T09:08:33.923Z,20.50
2017-08-21T09:11:01.461Z,20.40
2017-08-21T09:13:29.010Z,20.20
2017-08-21T09:15:56.561Z,20.30
2017-08-21T09:18:24.886Z,21.00
2017-08-21T09:20:52.440Z,21.00
2017-08-21T09:23:19.999Z,21.10
2017-08-21T09:25:47.533Z,20.30
2017-08-21T09:28:15.055Z,20.70
2017-08-21T09:30:42.581Z,21.40
2017-08-21T09:33:10.111Z,22.30
2017-08-21T09:35:37.647Z,21.20
2017-08-21T09:38:05.192Z,20.50
2017-08-21T09:40:32.751Z,19.90
2017-08-21T09:43:00.271Z,19.80
2017-08-21T09:45:27.819Z,20.40
2017-08-21T09:47:55.337Z,21.00
2017-08-21T09:50:22.890Z,20.40
2017-08-21T09:52:50.416Z,20.40
2017-08-21T09:55:17.982Z,20.00
2017-08-21T09:57:45.515Z,20.90
2017-08-21T10:00:13.039Z,21.30
2017-08-21T10:02:40.562Z,21.60
2017-08-21T10:05:08.090Z,21.00
2017-08-21T10:07:35.648Z,20.60
2017-08-21T10:10:03.190Z,20.00
2017-08-21T10:12:30.748Z,19.70
2017-08-21T10:14:59.042Z,19.60
2017-08-21T10:17:26.607Z,19.60
2017-08-21T10:19:54.155Z,19.70
2017-08-21T10:22:21.732Z,19.50
2017-08-21T10:25:23.819Z,19.00
2017-08-21T10:27:57.167Z,18.90
2017-08-21T10:30:24.702Z,18.70
2017-08-21T10:32:52.258Z,18.90
2017-08-21T10:35:19.788Z,19.30
2017-08-21T10:37:47.316Z,20.30
2017-08-21T10:40:14.911Z,21.40
2017-08-21T10:42:42.578Z,21.60
2017-08-21T10:45:10.103Z,22.10
2017-08-21T10:47:37.626Z,22.30
2017-08-21T10:50:05.158Z,22.20
2017-08-21T10:52:32.703Z,22.20
2017-08-21T10:55:00.239Z,21.70
2017-08-21T10:57:27.771Z,21.40
2017-08-21T10:59:55.302Z,21.80
2017-08-21T11:02:22.860Z,22.00
2017-08-21T11:04:50.386Z,21.90
2017-08-21T11:07:17.921Z,22.50
2017-08-21T11:09:45.459Z,23.00
2017-08-21T11:12:13.022Z,22.50
2017-08-21T11:14:40.546Z,22.30
2017-08-21T11:17:08.080Z,21.40
2017-08-21T11:19:35.650Z,21.80
2017-08-21T11:22:03.190Z,21.80
2017-08-21T11:24:30.730Z,22.30
2017-08-21T11:26:58.259Z,22.50
2017-08-21T11:29:25.795Z,22.70
2017-08-21T11:31:53.331Z,22.50
2017-08-21T11:34:20.872Z,22.70
2017-08-21T11:36:48.406Z,22.50
2017-08-21T11:39:15.939Z,22.50
2017-08-21T11:41:43.478Z,22.20
2017-08-21T11:44:11.006Z,22.30
2017-08-21T11:46:38.534Z,22.40
2017-08-21T11:49:06.075Z,22.40
2017-08-21T11:51:33.611Z,22.70
2017-08-21T11:54:01.143Z,22.20
2017-08-21T11:56:28.680Z,22.00
2017-08-21T11:58:56.215Z,22.30
2017-08-21T12:01:23.790Z,22.40
2017-08-21T12:03:51.336Z,22.30
2017-08-21T12:06:18.874Z,22.10
2017-08-21T12:08:46.407Z,22.00
2017-08-21T12:11:13.938Z,21.70
2017-08-21T12:13:41.466Z,21.30
2017-08-21T12:16:08.999Z,21.40
2017-08-21T12:18:36.539Z,21.30
2017-08-21T12:21:04.074Z,21.20
2017-08-21T12:23:31.663Z,21.20
2017-08-21T12:25:59.205Z,20.90
2017-08-21T12:28:27.357Z,20.80
2017-08-21T12:30:54.891Z,20.90
2017-08-21T12:33:22.511Z,21.30
2017-08-21T12:35:50.045Z,21.40
2017-08-21T12:38:17.620Z,21.10
2017-08-21T12:40:45.151Z,21.20
2017-08-21T12:43:12.724Z,21.20
2017-08-21T12:45:40.266Z,21.10
2017-08-21T12:48:07.879Z,21.00
2017-08-21T12:50:35.416Z,20.70
2017-08-21T12:53:02.960Z,20.60
2017-08-21T12:55:30.500Z,20.60
2017-08-21T12:57:58.038Z,20.60
2017-08-21T13:00:25.584Z,20.60
2017-08-21T13:02:53.128Z,20.60
2017-08-21T13:05:20.661Z,21.10
2017-08-21T13:07:48.199Z,21.40
2017-08-21T13:10:15.734Z,21.30
2017-08-21T13:12:43.287Z,21.30
2017-08-21T13:15:10.840Z,21.30
2017-08-21T13:17:38.370Z,20.80
2017-08-21T13:20:05.922Z,20.80
2017-08-21T13:22:33.454Z,20.80
2017-08-21T13:25:01.022Z,21.20
2017-08-21T13:27:28.551Z,21.40
2017-08-21T13:29:56.102Z,21.60
2017-08-21T13:32:23.630Z,21.80
2017-08-21T13:34:51.163Z,22.00
2017-08-21T13:40:11.416Z,22.20
2017-08-21T13:42:38.952Z,22.20
2017-08-21T13:45:06.501Z,21.90
2017-08-21T13:47:34.839Z,21.90
2017-08-21T13:50:02.371Z,21.90
2017-08-21T13:52:29.922Z,21.50
2017-08-21T13:54:57.478Z,20.90
2017-08-21T13:57:25.037Z,20.50
2017-08-21T14:02:26.606Z,20.20
2017-08-21T14:04:54.141Z,20.10
2017-08-21T14:07:21.666Z,20.10
2017-08-21T14:09:49.194Z,19.90
2017-08-21T14:12:16.737Z,19.80
2017-08-21T14:14:44.295Z,19.70
2017-08-21T14:17:11.836Z,19.70
2017-08-21T14:19:39.404Z,19.70
2017-08-21T14:22:06.939Z,19.80
2017-08-21T14:24:34.498Z,19.60
2017-08-21T14:27:02.036Z,19.50
2017-08-21T14:29:29.598Z,19.30
2017-08-21T14:31:57.139Z,19.20
2017-08-21T14:34:24.743Z,19.10
2017-08-21T14:36:52.280Z,19.20
2017-08-21T14:39:19.816Z,19.30
2017-08-21T14:41:47.358Z,19.30
2017-08-21T14:44:14.894Z,19.50
2017-08-21T14:46:42.451Z,19.80
2017-08-21T14:49:09.999Z,20.20
2017-08-21T14:51:37.571Z,20.20
2017-08-21T14:54:05.110Z,20.20
2017-08-21T14:56:32.666Z,20.20
2017-08-21T14:59:00.191Z,20.30
2017-08-21T15:01:27.751Z,20.50
2017-08-21T15:03:55.278Z,20.60
2017-08-21T15:06:22.918Z,20.40
2017-08-21T15:08:50.446Z,20.30
2017-08-21T15:11:18.042Z,20.00
2017-08-21T15:13:45.567Z,19.70
2017-08-21T15:16:13.098Z,19.60
2017-08-21T15:18:40.633Z,19.40
2017-08-21T15:21:08.157Z,19.30
2017-08-21T15:23:35.692Z,19.20
2017-08-21T15:26:03.210Z,19.30
2017-08-21T15:28:30.744Z,19.30
2017-08-21T15:30:58.283Z,19.30
2017-08-21T15:33:25.810Z,19.30
2017-08-21T15:35:53.351Z,19.30
2017-08-21T15:38:21.779Z,19.20
2017-08-21T15:40:49.307Z,19.20
2017-08-21T15:43:16.836Z,19.20
2017-08-21T15:45:44.367Z,19.20
2017-08-21T15:48:11.886Z,19.10
2017-08-21T15:50:39.414Z,19.20
2017-08-21T15:53:06.942Z,19.20
2017-08-21T15:55:34.473Z,19.20
2017-08-21T15:58:02.004Z,19.30
2017-08-21T16:00:29.526Z,19.20
2017-08-21T16:02:57.078Z,19.20
2017-08-21T16:05:24.610Z,19.30
2017-08-21T16:07:52.190Z,19.20
2017-08-21T16:10:19.736Z,19.20
2017-08-21T16:12:47.289Z,19.30
2017-08-21T16:15:14.824Z,19.30
2017-08-21T16:17:42.367Z,19.30
2017-08-21T16:20:09.909Z,19.30
2017-08-21T16:22:37.447Z,19.30
2017-08-21T16:25:04.988Z,19.40
2017-08-21T16:27:32.538Z,19.30
2017-08-21T16:30:00.079Z,19.30
2017-08-21T16:32:27.618Z,19.30
2017-08-21T16:34:55.170Z,19.40
2017-08-21T16:37:22.726Z,19.30
2017-08-21T16:39:50.302Z,19.20
2017-08-21T16:42:17.835Z,19.30
2017-08-21T16:44:45.372Z,19.20
2017-08-21T16:47:12.907Z,19.20
2017-08-21T16:49:40.450Z,19.20
2017-08-21T16:52:07.987Z,19.20
2017-08-21T16:54:35.523Z,19.10
2017-08-21T16:57:03.051Z,19.10
2017-08-21T16:59:30.587Z,19.00
2017-08-21T17:01:58.163Z,19.00
2017-08-21T17:04:25.694Z,18.90
2017-08-21T17:06:53.994Z,18.70
2017-08-21T17:09:21.539Z,18.70
2017-08-21T17:11:49.082Z,18.70
2017-08-21T17:14:16.610Z,18.60
2017-08-21T17:16:44.268Z,18.60
2017-08-21T17:19:11.794Z,18.50
2017-08-21T17:21:39.346Z,18.50
2017-08-21T17:24:06.918Z,18.40
2017-08-21T17:26:34.458Z,18.30
2017-08-21T17:29:01.991Z,18.30
2017-08-21T17:31:29.523Z,18.20
2017-08-21T17:33:57.055Z,18.10
2017-08-21T17:36:24.607Z,18.00
2017-08-21T17:38:52.147Z,18.00
2017-08-21T17:41:19.679Z,18.10
2017-08-21T17:43:47.219Z,18.00
2017-08-21T17:46:14.758Z,18.00
2017-08-21T17:48:42.307Z,18.00
2017-08-21T17:51:09.839Z,18.00
2017-08-21T17:56:11.400Z,17.80
2017-08-21T17:58:38.999Z,17.90
2017-08-21T18:01:07.300Z,17.80
2017-08-21T18:03:34.835Z,17.80
2017-08-21T18:06:02.374Z,17.80
2017-08-21T18:08:29.915Z,17.60
2017-08-21T18:10:57.447Z,17.70
2017-08-21T18:13:24.994Z,17.60
2017-08-21T18:15:52.552Z,17.60
2017-08-21T18:18:20.085Z,17.60
2017-08-21T18:20:47.618Z,17.60
2017-08-21T18:23:15.146Z,17.60
2017-08-21T18:25:42.679Z,17.60
2017-08-21T18:28:10.996Z,17.60
2017-08-21T18:30:38.537Z,17.60
2017-08-21T18:33:06.066Z,17.50
2017-08-21T18:35:33.643Z,17.50
2017-08-21T18:38:01.175Z,17.40
2017-08-21T18:40:28.707Z,17.50
2017-08-21T18:42:56.238Z,17.40
2017-08-21T18:45:23.767Z,17.50
2017-08-21T18:47:51.294Z,17.40
2017-08-21T18:50:18.827Z,17.30
2017-08-21T18:52:46.363Z,17.40
2017-08-21T18:55:14.076Z,17.40
2017-08-21T18:57:41.682Z,17.30
2017-08-21T19:00:09.339Z,17.30
2017-08-21T19:02:37.414Z,17.20
2017-08-21T19:05:05.280Z,17.10
2017-08-21T19:07:32.982Z,17.00
2017-08-21T19:10:00.686Z,16.90
2017-08-21T19:12:28.351Z,16.80
2017-08-21T19:14:55.961Z,16.70
2017-08-21T19:17:23.841Z,16.60
2017-08-21T19:19:51.492Z,16.60
2017-08-21T19:22:19.192Z,16.50
2017-08-21T19:24:47.118Z,16.40
2017-08-21T19:27:14.705Z,16.30
2017-08-21T19:29:42.394Z,16.20
2017-08-21T19:32:10.026Z,16.20
2017-08-21T19:34:37.890Z,16.10
2017-08-21T19:37:05.518Z,16.00
2017-08-21T19:39:33.213Z,16.00
2017-08-21T19:42:00.809Z,15.90
2017-08-21T19:44:28.441Z,15.80
2017-08-21T19:46:55.983Z,15.80
2017-08-21T19:49:23.604Z,15.70
2017-08-21T19:51:51.159Z,15.70
2017-08-21T19:54:18.694Z,15.70
2017-08-21T19:56:46.226Z,15.60
2017-08-21T19:59:13.765Z,15.50
2017-08-21T20:01:41.323Z,15.40
2017-08-21T20:04:08.854Z,15.30
2017-08-21T20:06:36.390Z,15.30
2017-08-21T20:09:03.947Z,15.30
2017-08-21T20:11:31.487Z,15.30
2017-08-21T20:13:59.022Z,15.20
2017-08-21T20:16:26.595Z,15.30
2017-08-21T20:18:54.123Z,15.20
2017-08-21T20:21:21.669Z,15.10
2017-08-21T20:23:49.222Z,15.10
2017-08-21T20:26:16.755Z,14.90
2017-08-21T20:28:44.290Z,14.90
2017-08-21T20:31:11.845Z,14.90
2017-08-21T20:33:39.390Z,14.90
2017-08-21T20:36:06.922Z,14.80
2017-08-21T20:38:34.458Z,14.70
2017-08-21T20:41:01.996Z,14.70
2017-08-21T20:43:29.540Z,14.70
2017-08-21T20:45:57.075Z,14.70
2017-08-21T20:48:24.626Z,14.60
2017-08-21T20:50:52.159Z,14.70
2017-08-21T20:53:19.691Z,14.60
2017-08-21T20:55:47.252Z,14.60
2017-08-21T20:58:14.779Z,14.60
2017-08-21T21:00:42.311Z,14.60
2017-08-21T21:03:09.874Z,14.60
2017-08-21T21:05:37.407Z,14.50
2017-08-21T21:08:04.947Z,14.50
2017-08-21T21:10:32.500Z,14.40
2017-08-21T21:13:00.027Z,14.40
2017-08-21T21:15:27.587Z,14.40
2017-08-21T21:17:55.119Z,14.30
2017-08-21T21:20:22.676Z,14.30
2017-08-21T21:22:50.207Z,14.30
2017-08-21T21:25:17.767Z,14.20
2017-08-21T21:27:45.304Z,14.20
2017-08-21T21:30:12.890Z,14.20
2017-08-21T21:32:40.438Z,14.10
2017-08-21T21:35:07.989Z,14.10
2017-08-21T21:37:35.531Z,14.10
2017-08-21T21:40:03.062Z,14.10
2017-08-21T21:42:30.590Z,14.10
2017-08-21T21:44:58.148Z,14.10
2017-08-21T21:47:25.712Z,14.10
2017-08-21T21:49:53.266Z,14.10
2017-08-21T21:52:20.855Z,14.10
2017-08-21T21:54:48.386Z,14.10
2017-08-21T21:57:15.947Z,14.10
2017-08-21T21:59:43.478Z,14.10
2017-08-21T22:02:11.046Z,14.00
2017-08-21T22:04:38.574Z,14.00
2017-08-21T22:07:06.110Z,14.00
2017-08-21T22:09:33.654Z,14.00
2017-08-21T22:12:01.196Z,14.00
2017-08-21T22:14:28.746Z,14.00
2017-08-21T22:16:56.274Z,14.00
2017-08-21T22:19:23.831Z,14.00
2017-08-21T22:21:51.375Z,13.90
2017-08-21T22:24:18.935Z,13.80
2017-08-21T22:26:46.467Z,13.80
2017-08-21T22:29:14.053Z,13.80
2017-08-21T22:31:41.607Z,13.80
2017-08-21T22:34:15.003Z,13.70
2017-08-21T22:36:42.538Z,13.70
2017-08-21T22:39:10.092Z,13.60
2017-08-21T22:41:37.636Z,13.60
2017-08-21T22:44:05.171Z,13.60
2017-08-21T22:46:32.699Z,13.50
2017-08-21T22:49:00.226Z,13.50
2017-08-21T22:51:27.786Z,13.50
2017-08-21T22:53:55.331Z,13.50
2017-08-21T22:56:22.887Z,13.50
2017-08-21T22:58:50.430Z,13.50
2017-08-21T23:01:35.335Z,13.40
2017-08-21T23:04:02.867Z,13.40
2017-08-21T23:06:30.400Z,13.30
2017-08-21T23:08:57.932Z,13.30
2017-08-21T23:11:25.458Z,13.30
2017-08-21T23:13:52.982Z,13.30
2017-08-21T23:16:20.551Z,13.30
2017-08-21T23:18:48.090Z,13.30
2017-08-21T23:21:15.628Z,13.30
2017-08-21T23:23:43.202Z,13.30
2017-08-21T23:26:10.727Z,13.20
2017-08-21T23:28:38.262Z,13.20
2017-08-21T23:31:05.795Z,13.20
2017-08-21T23:33:33.327Z,13.20
2017-08-21T23:36:00.850Z,13.20
2017-08-21T23:38:28.378Z,13.20
2017-08-21T23:40:55.906Z,13.20
2017-08-21T23:43:23.435Z,13.20
2017-08-21T23:45:50.963Z,13.20
2017-08-21T23:48:18.487Z,13.20
2017-08-21T23:50:46.015Z,13.30
2017-08-21T23:53:13.545Z,13.30
2017-08-21T23:55:41.075Z,13.40
2017-08-21T23:58:08.602Z,13.40
